Time;durP1;ratioP1;P1;durP2;ratioP2;P2;SDS_P1;SDS_P2;PMS_P1;PMS_P2;Temp;Humidity;BMP_temperature;BMP_pressure;BME280_temperature;BME280_humidity;BME280_pressure;Samples;Min_cycle;Max_cycle;Signal;HPM_P1;HPM_P2
2021/07/25 00:01:13;;;;;;;4.75;2.58;;;25.70;69.50;;;;;;5070829;28;20060;-43
2021/07/25 00:03:39;;;;;;;4.68;3.50;;;25.60;69.50;;;;;;5071835;28;20032;-44
2021/07/25 00:06:05;;;;;;;5.88;2.95;;;25.60;69.50;;;;;;5070814;28;20264;-49
2021/07/25 00:08:31;;;;;;;6.22;2.97;;;25.60;69.50;;;;;;5070499;28;20024;-45
2021/07/25 00:10:57;;;;;;;5.78;3.55;;;25.60;69.50;;;;;;5070228;28;20051;-47
2021/07/25 00:13:22;;;;;;;4.88;3.00;;;25.60;69.60;;;;;;5070618;28;20029;-42
2021/07/25 00:15:48;;;;;;;3.65;2.85;;;25.60;69.60;;;;;;5069844;28;20385;-42
2021/07/25 00:18:14;;;;;;;5.70;3.03;;;25.60;69.50;;;;;;5070522;28;20029;-43
2021/07/25 00:20:40;;;;;;;5.55;3.22;;;25.60;69.50;;;;;;5070738;28;20103;-42
2021/07/25 00:23:06;;;;;;;3.10;2.50;;;25.60;69.40;;;;;;5069695;28;20527;-43
2021/07/25 00:25:34;;;;;;;5.10;3.47;;;25.60;69.50;;;;;;5063002;28;20510;-42
2021/07/25 00:27:59;;;;;;;4.97;3.22;;;25.60;69.50;;;;;;5070075;28;20028;-42
2021/07/25 00:30:26;;;;;;;3.92;2.92;;;25.60;69.40;;;;;;5074203;28;20063;-42
2021/07/25 00:32:52;;;;;;;3.88;2.70;;;25.60;69.60;;;;;;5073774;28;20059;-42
2021/07/25 00:35:18;;;;;;;4.55;2.95;;;25.60;69.50;;;;;;5074541;28;20111;-42
2021/07/25 00:37:47;;;;;;;4.15;3.15;;;25.60;69.90;;;;;;5074107;28;20095;-52
2021/07/25 00:40:38;;;;;;;6.47;3.60;;;25.60;69.40;;;;;;5074488;28;20040;-45
2021/07/25 00:43:03;;;;;;;3.63;2.83;;;25.60;69.40;;;;;;5053591;28;20200;-42
2021/07/25 00:45:30;;;;;;;3.92;3.30;;;25.50;69.30;;;;;;5055376;28;20092;-42
2021/07/25 00:47:56;;;;;;;4.40;3.20;;;25.60;69.10;;;;;;5063282;28;20036;-42
2021/07/25 00:50:22;;;;;;;5.10;3.50;;;25.50;68.90;;;;;;5074757;28;20074;-42
2021/07/25 00:52:48;;;;;;;5.55;3.30;;;25.60;68.90;;;;;;5056101;28;20025;-52
2021/07/25 00:55:14;;;;;;;4.35;3.22;;;25.60;68.90;;;;;;5074512;28;20496;-42
2021/07/25 00:57:40;;;;;;;3.35;3.00;;;25.60;69.00;;;;;;5074610;28;20063;-41
2021/07/25 01:00:10;;;;;;;4.38;3.17;;;25.50;68.90;;;;;;5073624;28;20168;-42
2021/07/25 01:03:00;;;;;;;5.70;3.85;;;25.60;68.90;;;;;;5074063;28;20055;-42
2021/07/25 01:06:05;;;;;;;4.75;3.50;;;25.50;68.90;;;;;;5035395;28;20036;-42
2021/07/25 01:08:40;;;;;;;4.32;3.25;;;25.50;68.70;;;;;;5002152;28;20042;-41
2021/07/25 01:11:07;;;;;;;4.70;3.28;;;25.50;68.70;;;;;;5072514;28;20055;-42
2021/07/25 01:13:37;;;;;;;5.05;3.25;;;25.50;68.60;;;;;;5074262;28;20107;-42
2021/07/25 01:16:03;;;;;;;5.15;3.45;;;25.50;68.70;;;;;;5073543;28;20086;-42
2021/07/25 01:18:29;;;;;;;4.53;3.67;;;25.50;68.90;;;;;;5074189;28;20078;-42
2021/07/25 01:20:55;;;;;;;5.80;3.80;;;25.50;68.80;;;;;;5073876;28;20028;-42
2021/07/25 01:23:22;;;;;;;5.05;3.35;;;25.50;68.80;;;;;;5073956;28;20029;-42
2021/07/25 01:25:52;;;;;;;4.28;3.45;;;25.50;68.70;;;;;;5073657;28;20044;-52
2021/07/25 01:28:25;;;;;;;4.88;3.28;;;25.50;68.70;;;;;;5056210;28;20029;-41
2021/07/25 01:30:55;;;;;;;6.00;3.33;;;25.50;68.70;;;;;;5073397;28;20492;-42
2021/07/25 01:33:26;;;;;;;4.75;3.20;;;25.50;68.60;;;;;;5073983;28;20032;-42
2021/07/25 01:35:53;;;;;;;5.10;3.60;;;25.50;68.60;;;;;;5073253;28;20024;-42
2021/07/25 01:38:19;;;;;;;4.88;3.58;;;25.50;68.70;;;;;;5073744;28;20474;-42
2021/07/25 01:41:04;;;;;;;6.63;3.42;;;25.50;68.70;;;;;;5068705;28;20040;-43
2021/07/25 01:43:35;;;;;;;5.97;3.97;;;25.50;68.50;;;;;;5073517;28;20466;-42
2021/07/25 01:46:01;;;;;;;3.95;3.17;;;25.50;68.50;;;;;;5073287;28;20032;-42
2021/07/25 01:48:27;;;;;;;4.63;3.80;;;25.50;68.60;;;;;;5073358;28;20039;-42
2021/07/25 01:50:53;;;;;;;4.30;3.30;;;25.50;68.50;;;;;;5072709;28;20028;-42
2021/07/25 01:53:19;;;;;;;6.50;3.70;;;25.50;68.50;;;;;;5073615;28;20111;-42
2021/07/25 01:55:47;;;;;;;7.00;3.97;;;25.50;68.60;;;;;;5073589;28;20052;-42
2021/07/25 01:58:13;;;;;;;5.22;3.20;;;25.50;68.40;;;;;;5072505;28;20028;-42
2021/07/25 02:00:39;;;;;;;6.15;4.00;;;25.50;68.40;;;;;;5072963;28;20045;-43
2021/07/25 02:03:05;;;;;;;5.15;3.47;;;25.50;68.40;;;;;;5072201;28;20029;-42
2021/07/25 02:05:30;;;;;;;4.85;4.03;;;25.50;68.50;;;;;;5072529;28;20082;-42
2021/07/25 02:07:56;;;;;;;4.68;3.63;;;25.50;68.40;;;;;;5071822;28;20032;-42
2021/07/25 02:10:22;;;;;;;6.95;4.10;;;25.50;68.30;;;;;;5073306;28;20028;-42
2021/07/25 02:12:48;;;;;;;5.20;3.10;;;25.50;68.40;;;;;;5073007;28;20436;-52
2021/07/25 02:15:14;;;;;;;5.88;3.90;;;25.50;68.30;;;;;;5072663;28;20465;-42
2021/07/25 02:17:40;;;;;;;5.90;4.25;;;25.50;68.20;;;;;;5072861;28;20035;-41
2021/07/25 02:20:07;;;;;;;4.43;3.55;;;25.50;68.30;;;;;;5072389;28;20025;-44
2021/07/25 02:22:32;;;;;;;10.70;4.00;;;25.50;68.20;;;;;;5073106;28;20032;-42
2021/07/25 02:24:58;;;;;;;6.65;4.03;;;25.50;68.20;;;;;;5071976;28;20032;-42
2021/07/25 02:27:24;;;;;;;6.90;3.88;;;25.50;68.10;;;;;;5072709;28;20035;-42
2021/07/25 02:29:49;;;;;;;8.63;4.43;;;25.50;68.20;;;;;;5072175;28;20107;-52
2021/07/25 02:32:15;;;;;;;5.10;4.20;;;25.50;68.20;;;;;;5072438;28;20028;-42
2021/07/25 02:34:41;;;;;;;6.22;4.03;;;25.50;68.10;;;;;;5072314;28;20032;-42
2021/07/25 02:37:11;;;;;;;4.70;3.90;;;25.50;68.20;;;;;;5071889;28;20032;-41
2021/07/25 02:39:38;;;;;;;5.97;3.60;;;25.50;68.10;;;;;;5072391;28;20031;-42
2021/07/25 02:42:04;;;;;;;7.07;3.75;;;25.50;68.30;;;;;;5071667;28;20440;-42
2021/07/25 02:44:30;;;;;;;4.88;3.75;;;25.50;68.20;;;;;;5072353;28;20063;-42
2021/07/25 02:46:56;;;;;;;5.63;3.63;;;25.50;68.10;;;;;;5070992;28;20035;-42
2021/07/25 02:49:22;;;;;;;4.57;3.83;;;25.50;68.10;;;;;;5054542;28;20021;-42
2021/07/25 02:51:47;;;;;;;6.70;3.20;;;25.50;68.00;;;;;;5072449;28;20154;-42
2021/07/25 02:54:13;;;;;;;4.95;4.03;;;25.50;68.00;;;;;;5071625;28;20094;-42
2021/07/25 02:56:39;;;;;;;7.43;4.53;;;25.50;68.10;;;;;;5072046;28;20032;-42
2021/07/25 02:59:04;;;;;;;5.35;3.53;;;25.50;68.10;;;;;;5071504;28;20028;-42
2021/07/25 03:01:30;;;;;;;5.03;3.70;;;25.40;67.90;;;;;;5072099;28;20497;-42
2021/07/25 03:03:55;;;;;;;7.38;3.53;;;25.50;68.00;;;;;;5071107;28;20025;-44
2021/07/25 03:06:21;;;;;;;5.55;3.58;;;25.50;68.00;;;;;;5072386;28;20028;-43
2021/07/25 03:08:47;;;;;;;7.97;3.88;;;25.50;67.90;;;;;;5072080;28;20035;-43
2021/07/25 03:11:12;;;;;;;4.70;3.65;;;25.50;67.90;;;;;;5071114;28;20512;-42
2021/07/25 03:13:38;;;;;;;6.75;3.78;;;25.40;67.70;;;;;;5068939;28;20397;-43
2021/07/25 03:16:06;;;;;;;5.65;4.45;;;25.50;67.90;;;;;;5071256;28;20024;-41
2021/07/25 03:18:32;;;;;;;4.32;3.60;;;25.40;67.90;;;;;;5072146;28;20025;-45
2021/07/25 03:20:59;;;;;;;6.13;3.90;;;25.40;68.10;;;;;;5071377;28;20103;-44
2021/07/25 03:23:24;;;;;;;4.93;3.80;;;25.40;67.90;;;;;;5053949;28;20029;-46
2021/07/25 03:25:50;;;;;;;5.22;3.92;;;25.50;67.90;;;;;;5053550;28;20039;-53
2021/07/25 03:28:16;;;;;;;4.75;3.55;;;25.40;67.90;;;;;;5071587;28;20369;-42
2021/07/25 03:30:42;;;;;;;5.13;3.65;;;25.40;67.80;;;;;;5071746;28;20628;-44
2021/07/25 03:33:09;;;;;;;4.55;3.80;;;25.40;67.80;;;;;;5070775;28;20110;-44
2021/07/25 03:35:35;;;;;;;5.57;3.83;;;25.40;67.70;;;;;;5071617;28;20393;-42
2021/07/25 03:38:01;;;;;;;5.93;3.70;;;25.40;68.00;;;;;;5052891;28;20383;-45
2021/07/25 03:40:29;;;;;;;6.95;4.00;;;25.40;68.00;;;;;;5071410;28;20035;-42
2021/07/25 03:42:56;;;;;;;5.55;4.03;;;25.40;67.70;;;;;;5070640;28;20029;-42
2021/07/25 03:45:22;;;;;;;5.22;4.03;;;25.40;67.70;;;;;;5071783;28;20131;-42
2021/07/25 03:47:48;;;;;;;5.72;4.22;;;25.40;67.70;;;;;;5071685;28;20116;-42
2021/07/25 03:50:13;;;;;;;5.88;3.67;;;25.40;67.70;;;;;;5071197;28;20123;-42
2021/07/25 03:52:39;;;;;;;6.15;3.78;;;25.40;67.60;;;;;;5071707;28;20027;-42
2021/07/25 03:55:07;;;;;;;4.68;3.78;;;25.40;67.40;;;;;;5070523;28;20024;-43
2021/07/25 03:57:34;;;;;;;6.97;3.88;;;25.40;67.40;;;;;;5071450;28;20107;-42
2021/07/25 03:59:59;;;;;;;4.95;4.00;;;25.40;67.20;;;;;;5070553;28;20463;-42
2021/07/25 04:02:25;;;;;;;7.05;3.58;;;25.40;67.20;;;;;;5071785;28;20048;-42
2021/07/25 04:04:51;;;;;;;6.35;4.07;;;25.40;67.10;;;;;;5073988;28;20480;-52
2021/07/25 04:07:16;;;;;;;4.18;3.70;;;25.40;67.10;;;;;;5074707;28;20032;-42
2021/07/25 04:09:42;;;;;;;4.93;3.75;;;25.40;67.10;;;;;;5075735;28;20033;-42
2021/07/25 04:12:08;;;;;;;5.32;4.13;;;25.40;67.10;;;;;;5074579;28;20036;-42
2021/07/25 04:14:34;;;;;;;4.65;3.90;;;25.40;67.00;;;;;;5075387;28;20039;-42
2021/07/25 04:17:00;;;;;;;4.22;3.25;;;25.40;67.00;;;;;;5074410;28;20373;-49
2021/07/25 04:19:27;;;;;;;5.50;3.78;;;25.40;67.00;;;;;;5056846;28;20028;-42
2021/07/25 04:21:55;;;;;;;5.25;3.80;;;25.40;67.00;;;;;;5074912;28;20028;-51
2021/07/25 04:24:21;;;;;;;5.15;3.60;;;25.50;67.20;;;;;;5075286;28;20103;-42
2021/07/25 04:26:47;;;;;;;5.35;3.38;;;25.40;67.10;;;;;;5075259;28;20091;-42
2021/07/25 04:29:13;;;;;;;8.13;4.00;;;25.40;67.00;;;;;;5074223;28;20033;-42
2021/07/25 04:31:39;;;;;;;5.57;4.05;;;25.40;66.90;;;;;;5074105;28;20035;-42
2021/07/25 04:34:05;;;;;;;6.43;4.72;;;25.40;67.00;;;;;;5074130;28;20028;-42
2021/07/25 04:36:31;;;;;;;7.10;3.80;;;25.40;66.90;;;;;;5075145;28;20028;-43
2021/07/25 04:38:57;;;;;;;5.13;4.28;;;25.40;66.90;;;;;;5074140;28;20090;-46
2021/07/25 04:41:26;;;;;;;4.60;3.92;;;25.40;66.80;;;;;;5074925;28;20037;-42
2021/07/25 04:44:12;;;;;;;6.82;3.80;;;25.40;66.90;;;;;;5074757;28;20052;-47
2021/07/25 04:46:45;;;;;;;6.88;3.92;;;25.40;66.80;;;;;;5033640;28;20112;-43
2021/07/25 04:49:15;;;;;;;5.72;4.00;;;25.40;66.80;;;;;;5074082;28;20424;-42
2021/07/25 04:51:43;;;;;;;5.93;4.00;;;25.40;66.80;;;;;;5075003;28;20454;-45
2021/07/25 04:54:16;;;;;;;6.13;4.05;;;25.40;66.80;;;;;;5073169;28;20028;-42
2021/07/25 04:57:02;;;;;;;5.00;3.47;;;25.40;66.70;;;;;;5074846;28;20355;-42
2021/07/25 04:59:47;;;;;;;4.55;3.30;;;25.40;66.80;;;;;;5074473;28;20024;-42
2021/07/25 05:02:15;;;;;;;6.18;4.30;;;25.40;66.80;;;;;;5073798;28;20121;-47
2021/07/25 05:04:41;;;;;;;6.82;3.97;;;25.40;66.70;;;;;;5074515;28;20062;-42
2021/07/25 05:07:11;;;;;;;4.53;3.78;;;25.40;66.90;;;;;;5073833;28;20028;-42
2021/07/25 05:09:37;;;;;;;4.50;3.55;;;25.40;66.70;;;;;;5074137;28;20101;-43
2021/07/25 05:12:10;;;;;;;5.22;3.40;;;25.40;66.80;;;;;;5073627;28;20072;-42
2021/07/25 05:14:37;;;;;;;4.05;3.45;;;25.40;66.80;;;;;;5074128;28;20029;-42
2021/07/25 05:17:21;;;;;;;5.75;4.05;;;25.40;66.80;;;;;;5073582;28;20024;-42
2021/07/25 05:19:59;;;;;;;6.90;4.15;;;25.40;66.80;;;;;;5074423;28;20027;-42
2021/07/25 05:22:31;;;;;;;4.55;3.53;;;25.40;66.60;;;;;;5054208;28;20017;-42
2021/07/25 05:25:00;;;;;;;5.05;4.25;;;25.40;66.70;;;;;;5071529;28;20032;-52
2021/07/25 05:27:34;;;;;;;5.13;3.50;;;25.40;66.70;;;;;;5073734;28;20029;-42
2021/07/25 05:30:00;;;;;;;4.22;3.60;;;25.40;66.70;;;;;;5073496;28;20036;-42
2021/07/25 05:32:25;;;;;;;4.90;3.55;;;25.40;66.60;;;;;;5074043;28;20020;-42
2021/07/25 05:34:51;;;;;;;4.88;3.10;;;25.40;66.60;;;;;;5073575;28;20036;-43
2021/07/25 05:37:17;;;;;;;3.70;3.00;;;25.40;66.80;;;;;;5073373;28;20587;-42
2021/07/25 05:39:42;;;;;;;4.93;3.80;;;25.40;66.90;;;;;;5074046;28;20033;-43
2021/07/25 05:42:08;;;;;;;4.38;3.65;;;25.40;66.90;;;;;;5072752;28;20481;-42
2021/07/25 05:44:34;;;;;;;4.30;3.40;;;25.40;66.60;;;;;;5073409;28;20028;-43
2021/07/25 05:46:59;;;;;;;4.60;3.45;;;25.40;66.70;;;;;;5072493;28;20039;-43
2021/07/25 05:49:25;;;;;;;6.47;4.15;;;25.40;66.80;;;;;;5073547;28;20102;-42
2021/07/25 05:51:51;;;;;;;5.43;3.72;;;25.40;66.80;;;;;;5073652;28;20477;-44
2021/07/25 05:54:18;;;;;;;4.72;3.63;;;25.40;66.90;;;;;;5072256;28;20024;-43
2021/07/25 05:56:43;;;;;;;5.78;3.85;;;25.40;66.60;;;;;;5073803;28;20032;-43
2021/07/25 05:59:10;;;;;;;5.93;3.63;;;25.40;66.80;;;;;;5072159;28;20025;-43
2021/07/25 06:01:43;;;;;;;6.55;3.53;;;25.40;67.00;;;;;;5073611;28;20481;-43
2021/07/25 06:04:09;;;;;;;3.72;3.15;;;25.40;66.80;;;;;;5072669;28;20050;-42
2021/07/25 06:06:34;;;;;;;4.32;3.15;;;25.40;66.80;;;;;;5073468;28;20040;-42
2021/07/25 06:09:03;;;;;;;5.32;3.80;;;25.40;66.90;;;;;;5072447;28;20020;-44
2021/07/25 06:11:29;;;;;;;4.60;3.40;;;25.40;66.90;;;;;;5073243;28;20047;-42
2021/07/25 06:13:55;;;;;;;4.90;3.33;;;25.40;66.80;;;;;;5073213;28;20032;-42
2021/07/25 06:16:20;;;;;;;6.32;4.20;;;25.40;66.90;;;;;;5071813;28;20020;-43
2021/07/25 06:18:48;;;;;;;4.55;3.38;;;25.40;66.90;;;;;;5073090;28;20029;-42
2021/07/25 06:21:20;;;;;;;4.65;3.95;;;25.40;66.90;;;;;;5072347;28;20032;-42
2021/07/25 06:23:47;;;;;;;5.53;3.78;;;25.50;67.00;;;;;;5072779;28;20028;-41
2021/07/25 06:26:13;;;;;;;4.90;3.53;;;25.50;66.80;;;;;;5071273;28;20044;-42
2021/07/25 06:28:39;;;;;;;4.25;3.40;;;25.50;66.90;;;;;;5071728;28;20386;-41
2021/07/25 06:31:04;;;;;;;8.27;3.80;;;25.50;66.50;;;;;;5054028;28;20024;-42
2021/07/25 06:33:30;;;;;;;5.15;3.85;;;25.60;66.30;;;;;;5072783;28;20462;-41
2021/07/25 06:35:56;;;;;;;8.50;4.43;;;25.50;66.70;;;;;;5068081;28;20032;-53
2021/07/25 06:38:23;;;;;;;7.18;4.18;;;25.20;68.30;;;;;;5072021;28;20104;-45
2021/07/25 06:40:54;;;;;;;5.85;4.88;;;24.60;69.80;;;;;;5072524;28;20351;-43
2021/07/25 06:43:21;;;;;;;9.10;4.50;;;24.50;70.50;;;;;;5071503;28;20857;-44
2021/07/25 06:45:47;;;;;;;6.10;4.50;;;24.30;70.20;;;;;;5071689;28;20029;-42
2021/07/25 06:48:27;;;;;;;5.22;4.03;;;24.20;70.90;;;;;;5071679;28;20036;-45
2021/07/25 06:50:58;;;;;;;8.50;5.03;;;24.20;71.60;;;;;;5072217;28;20501;-43
2021/07/25 06:53:25;;;;;;;6.63;4.40;;;24.20;72.10;;;;;;5072147;28;20039;-43
2021/07/25 06:55:53;;;;;;;7.40;4.90;;;24.20;73.20;;;;;;5058683;28;20040;-42
2021/07/25 06:58:19;;;;;;;6.70;4.53;;;24.20;72.90;;;;;;5057369;28;20021;-45
2021/07/25 07:00:45;;;;;;;7.82;5.03;;;24.20;73.30;;;;;;5052211;28;20091;-42
2021/07/25 07:03:10;;;;;;;7.18;5.07;;;24.20;72.80;;;;;;5051273;28;20037;-44
2021/07/25 07:05:36;;;;;;;6.00;4.25;;;24.20;73.00;;;;;;5051616;28;20467;-41
2021/07/25 07:08:07;;;;;;;8.05;4.72;;;24.40;72.40;;;;;;5060330;28;20036;-42
2021/07/25 07:10:37;;;;;;;7.65;5.40;;;24.60;71.60;;;;;;5071648;28;20067;-41
2021/07/25 07:13:09;;;;;;;8.45;4.60;;;24.60;71.70;;;;;;5071776;28;20037;-42
2021/07/25 07:15:36;;;;;;;6.40;4.63;;;24.60;71.40;;;;;;5070399;28;20082;-42
2021/07/25 07:18:03;;;;;;;10.20;4.35;;;24.70;71.00;;;;;;5052998;28;20029;-44
2021/07/25 07:20:29;;;;;;;6.45;4.47;;;24.60;71.00;;;;;;5071750;28;20028;-43
2021/07/25 07:23:04;;;;;;;10.23;5.03;;;24.70;70.90;;;;;;5073386;28;20362;-42
2021/07/25 07:25:35;;;;;;;9.05;4.50;;;24.90;70.50;;;;;;5072271;28;20072;-44
2021/07/25 07:28:01;;;;;;;9.70;4.90;;;24.90;70.50;;;;;;5071728;28;20025;-42
2021/07/25 07:30:26;;;;;;;9.02;4.75;;;25.00;70.50;;;;;;5072047;28;20017;-43
2021/07/25 07:32:52;;;;;;;7.50;4.93;;;24.90;71.10;;;;;;5071706;28;20443;-42
2021/07/25 07:35:22;;;;;;;5.47;4.90;;;24.80;71.20;;;;;;5070504;28;20036;-42
2021/07/25 07:37:49;;;;;;;7.85;4.88;;;24.80;71.30;;;;;;5059073;28;20029;-41
2021/07/25 07:40:15;;;;;;;9.40;4.95;;;24.90;71.20;;;;;;5051125;28;20052;-42
2021/07/25 07:42:40;;;;;;;12.65;4.53;;;24.90;70.80;;;;;;5051795;28;20033;-42
2021/07/25 07:45:07;;;;;;;7.95;4.18;;;24.90;70.80;;;;;;5051188;28;20025;-41
2021/07/25 07:47:33;;;;;;;9.85;4.57;;;24.80;70.60;;;;;;5051599;28;20390;-43
2021/07/25 07:49:58;;;;;;;7.88;4.25;;;24.80;70.90;;;;;;5051394;28;20032;-51
2021/07/25 07:52:24;;;;;;;10.15;4.40;;;24.80;70.70;;;;;;5052004;28;20025;-41
2021/07/25 07:54:49;;;;;;;11.48;4.18;;;24.80;70.70;;;;;;5051445;28;20032;-43
2021/07/25 07:57:15;;;;;;;11.15;4.65;;;24.70;70.70;;;;;;5051138;28;20036;-41
2021/07/25 07:59:41;;;;;;;4.57;3.58;;;24.80;70.20;;;;;;5051707;28;20106;-43
2021/07/25 08:02:08;;;;;;;6.57;3.80;;;24.80;70.30;;;;;;5050990;28;20447;-43
2021/07/25 08:04:33;;;;;;;9.93;4.22;;;25.10;69.50;;;;;;5082515;28;20042;-41
2021/07/25 08:06:59;;;;;;;8.90;4.15;;;25.00;69.10;;;;;;5065471;28;20107;-45
2021/07/25 08:09:25;;;;;;;7.93;4.95;;;25.00;69.00;;;;;;5043273;28;20037;-41
2021/07/25 08:11:52;;;;;;;9.23;4.32;;;25.00;69.00;;;;;;5071160;28;20025;-41
2021/07/25 08:14:19;;;;;;;4.72;3.50;;;25.10;68.40;;;;;;5069983;28;20362;-44
2021/07/25 08:16:45;;;;;;;8.18;4.80;;;25.20;68.50;;;;;;5071308;28;20020;-42
2021/07/25 08:19:11;;;;;;;6.95;4.30;;;25.10;68.60;;;;;;5070829;28;20032;-43
2021/07/25 08:21:39;;;;;;;7.18;3.92;;;25.00;68.70;;;;;;5072048;28;20032;-44
2021/07/25 08:24:06;;;;;;;5.18;3.65;;;25.10;68.30;;;;;;5071013;28;20027;-42
2021/07/25 08:26:32;;;;;;;9.07;5.15;;;25.20;68.70;;;;;;5071656;28;20039;-44
2021/07/25 08:28:57;;;;;;;6.97;4.60;;;25.10;68.60;;;;;;5071442;28;20020;-42
2021/07/25 08:31:23;;;;;;;5.70;4.30;;;25.00;68.70;;;;;;5071031;28;20028;-42
2021/07/25 08:33:49;;;;;;;6.97;4.07;;;24.90;69.20;;;;;;5071320;28;20404;-42
2021/07/25 08:36:14;;;;;;;7.60;4.15;;;25.00;69.00;;;;;;5068902;28;20036;-42
2021/07/25 08:38:40;;;;;;;7.70;4.40;;;25.10;68.70;;;;;;5068206;28;20382;-45
2021/07/25 08:41:11;;;;;;;6.20;4.22;;;25.20;68.40;;;;;;5070823;28;20036;-46
2021/07/25 08:43:45;;;;;;;9.15;4.93;;;25.20;68.60;;;;;;5071360;28;20351;-51
2021/07/25 08:46:17;;;;;;;6.38;4.35;;;25.20;68.80;;;;;;5070924;28;20129;-51
2021/07/25 08:48:52;;;;;;;9.65;4.60;;;25.20;68.50;;;;;;5071426;28;20064;-59
2021/07/25 08:51:21;;;;;;;8.32;4.70;;;25.20;68.10;;;;;;5074019;28;20090;-54
2021/07/25 08:53:58;;;;;;;10.23;4.57;;;25.30;67.70;;;;;;5074868;28;20029;-54
2021/07/25 08:56:29;;;;;;;7.03;4.22;;;25.30;67.60;;;;;;5074401;28;20377;-54
2021/07/25 08:59:02;;;;;;;6.15;4.45;;;25.30;67.20;;;;;;5074858;28;20024;-54
2021/07/25 09:01:39;;;;;;;7.05;4.40;;;25.30;67.30;;;;;;5074340;28;20048;-52
2021/07/25 09:04:06;;;;;;;6.40;4.40;;;25.30;67.40;;;;;;5073945;28;20484;-59
2021/07/25 09:06:39;;;;;;;6.75;4.10;;;25.20;67.30;;;;;;5072084;28;20493;-57
2021/07/25 09:09:05;;;;;;;6.40;4.32;;;25.20;67.80;;;;;;5066297;28;20035;-57
2021/07/25 09:11:31;;;;;;;7.72;3.92;;;25.20;68.30;;;;;;5074450;28;20032;-57
2021/07/25 09:13:58;;;;;;;6.85;4.55;;;25.10;68.60;;;;;;5074337;28;20537;-55
2021/07/25 09:16:29;;;;;;;5.70;3.92;;;25.10;68.30;;;;;;5074031;28;20030;-55
2021/07/25 09:18:55;;;;;;;7.68;4.07;;;25.20;69.00;;;;;;5056888;28;20020;-55
2021/07/25 09:21:44;;;;;;;11.05;5.88;;;25.10;68.80;;;;;;5072367;28;20035;-57
2021/07/25 09:24:23;;;;;;;5.30;3.97;;;25.10;68.60;;;;;;5073415;28;20032;-55
2021/07/25 09:26:59;;;;;;;6.10;3.80;;;25.20;68.80;;;;;;5074498;28;20492;-56
2021/07/25 09:29:37;;;;;;;4.65;3.53;;;25.20;68.90;;;;;;5073705;28;20025;-51
2021/07/25 09:32:12;;;;;;;7.18;4.10;;;25.20;68.80;;;;;;5074510;28;20063;-53
2021/07/25 09:34:44;;;;;;;5.68;3.88;;;25.20;69.20;;;;;;5074136;28;20055;-48
2021/07/25 09:37:14;;;;;;;6.82;3.70;;;25.20;68.60;;;;;;5065360;28;20047;-49
2021/07/25 09:39:53;;;;;;;6.70;3.72;;;25.10;68.70;;;;;;5054315;28;20543;-47
2021/07/25 09:42:32;;;;;;;6.15;4.13;;;25.20;68.90;;;;;;5053704;28;20382;-49
2021/07/25 09:44:59;;;;;;;7.03;3.40;;;25.10;67.80;;;;;;5053821;28;20064;-48
2021/07/25 09:47:33;;;;;;;6.22;3.90;;;25.10;68.60;;;;;;5053279;28;20116;-48
2021/07/25 09:50:00;;;;;;;6.47;3.95;;;25.20;68.40;;;;;;5074043;28;20043;-47
2021/07/25 09:52:57;;;;;;;6.53;4.00;;;25.30;67.90;;;;;;5073323;28;20547;-47
2021/07/25 09:55:30;;;;;;;5.78;4.25;;;25.40;67.60;;;;;;5072341;28;20473;-47
2021/07/25 09:57:55;;;;;;;7.93;4.57;;;25.50;67.30;;;;;;5073760;28;20024;-47
2021/07/25 10:00:21;;;;;;;5.57;3.75;;;25.50;67.10;;;;;;5072707;28;20041;-49
2021/07/25 10:02:47;;;;;;;8.20;4.07;;;25.50;67.00;;;;;;5072083;28;20035;-49
2021/07/25 10:05:18;;;;;;;8.13;4.20;;;25.50;67.00;;;;;;5071742;28;20182;-48
2021/07/25 10:07:45;;;;;;;7.13;4.68;;;25.50;67.00;;;;;;5061968;28;20533;-47
2021/07/25 10:10:17;;;;;;;6.78;4.10;;;25.50;66.90;;;;;;5068137;28;20025;-49
2021/07/25 10:12:45;;;;;;;6.78;4.38;;;25.50;67.00;;;;;;5073461;28;20039;-48
2021/07/25 10:15:13;;;;;;;6.50;4.10;;;25.50;67.20;;;;;;5072935;28;20029;-50
2021/07/25 10:17:41;;;;;;;7.47;4.25;;;25.50;67.20;;;;;;5073274;28;20028;-49
2021/07/25 10:20:12;;;;;;;5.78;3.83;;;25.50;67.30;;;;;;5072613;28;20027;-58
2021/07/25 10:22:39;;;;;;;6.53;3.97;;;25.50;67.30;;;;;;5072896;28;20462;-50
2021/07/25 10:25:10;;;;;;;6.38;4.38;;;25.50;67.30;;;;;;5073360;28;20125;-47
2021/07/25 10:27:36;;;;;;;6.00;4.30;;;25.40;67.30;;;;;;5073841;28;20033;-47
2021/07/25 10:30:12;;;;;;;5.60;3.85;;;25.40;67.50;;;;;;5073045;28;20067;-48
2021/07/25 10:32:39;;;;;;;4.50;3.40;;;25.40;67.40;;;;;;5073358;28;20544;-49
2021/07/25 10:35:07;;;;;;;4.22;3.10;;;25.40;66.90;;;;;;5070839;28;20025;-48
2021/07/25 10:37:41;;;;;;;5.25;3.40;;;25.30;66.70;;;;;;5072018;28;20064;-47
2021/07/25 10:40:09;;;;;;;4.57;3.33;;;25.30;66.40;;;;;;5073070;28;20036;-46
2021/07/25 10:42:41;;;;;;;4.38;3.08;;;25.40;66.40;;;;;;5071929;28;20028;-49
2021/07/25 10:45:10;;;;;;;4.57;3.28;;;25.40;66.30;;;;;;5072371;28;20048;-47
2021/07/25 10:47:36;;;;;;;5.55;3.13;;;25.40;66.40;;;;;;5072246;28;20029;-47
2021/07/25 10:50:07;;;;;;;5.35;3.65;;;25.40;66.60;;;;;;5070567;28;20466;-48
2021/07/25 10:52:59;;;;;;;5.70;3.17;;;25.40;66.70;;;;;;5071213;28;20082;-48
2021/07/25 10:55:34;;;;;;;6.47;3.75;;;25.40;66.60;;;;;;5071583;28;20078;-47
2021/07/25 10:58:05;;;;;;;5.50;3.38;;;25.40;66.70;;;;;;5072240;28;20044;-46
2021/07/25 11:00:45;;;;;;;4.05;3.08;;;25.40;66.80;;;;;;5071515;28;20040;-48
2021/07/25 11:03:29;;;;;;;4.40;3.13;;;25.40;66.80;;;;;;5071796;28;20421;-56
2021/07/25 11:06:07;;;;;;;4.93;2.90;;;25.40;66.90;;;;;;5068835;28;20032;-47
2021/07/25 11:08:41;;;;;;;5.13;3.45;;;25.40;66.70;;;;;;5071169;28;20572;-47
2021/07/25 11:11:25;;;;;;;4.20;3.17;;;25.40;66.80;;;;;;5072287;28;20055;-47
2021/07/25 11:13:51;;;;;;;5.75;3.00;;;25.30;66.80;;;;;;5071973;28;20029;-48
2021/07/25 11:16:29;;;;;;;4.55;3.10;;;25.30;66.90;;;;;;5053429;28;20060;-47
2021/07/25 11:19:00;;;;;;;3.88;2.97;;;25.30;66.80;;;;;;5072009;28;20028;-47
2021/07/25 11:21:31;;;;;;;6.10;3.50;;;25.30;66.70;;;;;;5070951;28;20035;-48
2021/07/25 11:23:57;;;;;;;;;;;25.30;66.50;;;;;;5072308;28;20029;-48
2021/07/25 11:26:38;;;;;;;3.75;2.65;;;25.30;66.60;;;;;;5071298;28;19966;-47
2021/07/25 11:29:09;;;;;;;6.40;3.17;;;25.30;66.40;;;;;;5071999;28;20171;-47
2021/07/25 11:31:40;;;;;;;5.40;3.23;;;25.30;66.40;;;;;;5071334;28;20028;-47
2021/07/25 11:34:08;;;;;;;4.50;3.50;;;25.30;66.20;;;;;;5072401;28;20032;-47
2021/07/25 11:36:33;;;;;;;3.80;3.15;;;25.30;66.30;;;;;;5055462;28;20029;-46
2021/07/25 11:39:01;;;;;;;5.13;3.35;;;25.20;66.30;;;;;;5051903;28;20029;-47
2021/07/25 11:41:27;;;;;;;3.50;2.75;;;25.20;66.50;;;;;;5033247;28;20382;-47
2021/07/25 11:43:58;;;;;;;4.15;2.90;;;25.20;66.60;;;;;;5051370;28;20045;-46
2021/07/25 11:46:41;;;;;;;5.07;3.30;;;25.20;66.80;;;;;;5051264;28;20079;-47
2021/07/25 11:49:29;;;;;;;3.42;2.95;;;25.20;66.50;;;;;;5051848;28;20033;-46
2021/07/25 11:52:03;;;;;;;4.53;3.50;;;25.20;66.60;;;;;;5051482;28;20057;-47
2021/07/25 11:54:29;;;;;;;7.32;3.35;;;25.20;66.70;;;;;;5051011;28;20037;-46
2021/07/25 11:57:07;;;;;;;6.60;3.40;;;25.20;66.70;;;;;;5051685;28;20369;-47
2021/07/25 11:59:38;;;;;;;4.75;3.03;;;25.20;66.60;;;;;;5050967;28;20024;-47
2021/07/25 12:02:08;;;;;;;5.13;3.40;;;25.20;66.60;;;;;;5012356;28;20128;-46
2021/07/25 12:04:42;;;;;;;6.07;3.70;;;25.20;66.30;;;;;;5011131;28;20096;-47
2021/07/25 12:07:20;;;;;;;5.40;3.63;;;25.20;66.40;;;;;;5027977;28;20033;-49
2021/07/25 12:09:49;;;;;;;4.32;3.30;;;25.20;66.50;;;;;;5029650;28;20040;-49
2021/07/25 12:12:21;;;;;;;5.15;3.50;;;25.20;66.50;;;;;;5031137;28;20037;-54
2021/07/25 12:14:48;;;;;;;;;;;25.20;66.60;;;;;;5032170;28;20040;-47
2021/07/25 12:17:49;;;;;;;5.93;3.53;;;25.20;66.60;;;;;;5031316;28;19905;-54
2021/07/25 12:20:21;;;;;;;5.78;4.13;;;25.20;66.50;;;;;;5031366;28;20026;-55
2021/07/25 12:23:02;;;;;;;4.32;3.47;;;25.20;66.80;;;;;;5031057;28;20034;-52
2021/07/25 12:25:33;;;;;;;5.27;3.90;;;25.20;66.60;;;;;;5033036;28;20037;-51
2021/07/25 12:28:09;;;;;;;5.30;3.70;;;25.20;66.50;;;;;;5035749;28;20278;-49
2021/07/25 12:30:55;;;;;;;4.65;3.78;;;25.20;66.40;;;;;;5019989;28;20030;-51
2021/07/25 12:33:31;;;;;;;5.05;3.80;;;25.20;66.50;;;;;;5014766;28;20057;-47
2021/07/25 12:36:10;;;;;;;4.93;3.88;;;25.20;66.20;;;;;;5024508;28;20037;-50
2021/07/25 12:38:36;;;;;;;5.93;3.40;;;25.20;66.20;;;;;;5028169;28;20029;-51
2021/07/25 12:41:03;;;;;;;4.80;3.30;;;25.20;65.70;;;;;;5035842;28;20409;-48
2021/07/25 12:43:30;;;;;;;5.05;3.80;;;25.20;65.70;;;;;;5034719;28;20037;-46
2021/07/25 12:46:02;;;;;;;5.25;3.83;;;25.20;65.70;;;;;;5034023;28;20495;-47
2021/07/25 12:48:32;;;;;;;5.47;3.80;;;25.20;65.80;;;;;;5034132;28;20106;-47
2021/07/25 12:53:39;;;;;;;4.85;3.65;;;25.20;65.80;;;;;;5033982;28;20041;-46
2021/07/25 12:56:13;;;;;;;4.57;3.83;;;25.10;65.80;;;;;;5034917;28;20025;-47
2021/07/25 12:58:51;;;;;;;6.13;3.75;;;25.20;65.90;;;;;;5034091;28;20055;-47
2021/07/25 13:04:10;;;;;;;5.88;3.33;;;25.20;65.70;;;;;;5074591;28;20161;-47